createdAt,value
2019-02-27T00:02:29.893Z,31.15
2019-02-27T00:08:34.136Z,29.05
2019-02-27T00:14:38.324Z,29.48
2019-02-27T00:20:42.636Z,30.43
2019-02-27T00:26:46.872Z,28.07
2019-02-27T00:32:51.840Z,26.15
2019-02-27T00:38:57.926Z,28.60
2019-02-27T00:45:02.164Z,29.90
2019-02-27T00:51:06.387Z,28.52
2019-02-27T00:57:10.986Z,28.02
2019-02-27T01:03:15.378Z,26.95
2019-02-27T01:09:19.596Z,28.45
2019-02-27T01:15:24.160Z,28.20
2019-02-27T01:21:28.366Z,36.98
2019-02-27T01:27:32.626Z,34.30
2019-02-27T01:33:38.133Z,29.27
2019-02-27T01:39:44.069Z,30.70
2019-02-27T01:45:48.790Z,29.20
2019-02-27T01:51:53.080Z,28.17
2019-02-27T01:57:57.442Z,27.10
2019-02-27T02:04:01.728Z,28.92
2019-02-27T02:10:06.170Z,28.17
2019-02-27T02:16:34.115Z,26.48
2019-02-27T02:23:14.172Z,28.57
2019-02-27T02:30:12.027Z,27.55
2019-02-27T02:36:45.767Z,25.62
2019-02-27T02:43:30.842Z,26.07
2019-02-27T02:50:17.459Z,26.75
2019-02-27T02:56:38.370Z,28.27
2019-02-27T03:03:16.879Z,30.40
2019-02-27T03:10:20.223Z,28.42
2019-02-27T03:16:45.072Z,30.27
2019-02-27T03:23:23.397Z,26.07
2019-02-27T03:30:14.166Z,30.00
2019-02-27T03:36:54.587Z,25.97
2019-02-27T03:43:36.871Z,26.37
2019-02-27T03:50:15.765Z,25.62
2019-02-27T03:56:52.202Z,24.90
2019-02-27T04:03:05.210Z,24.90
2019-02-27T04:09:10.081Z,27.10
2019-02-27T04:15:17.768Z,27.93
2019-02-27T04:21:25.089Z,27.50
2019-02-27T04:27:26.709Z,28.70
2019-02-27T04:33:31.108Z,27.13
2019-02-27T04:39:38.208Z,26.77
2019-02-27T04:45:43.919Z,32.70
2019-02-27T04:51:50.622Z,25.93
2019-02-27T04:57:54.414Z,28.83
2019-02-27T05:04:01.016Z,28.47
2019-02-27T05:10:07.324Z,28.40
2019-02-27T05:16:13.889Z,31.83
2019-02-27T05:22:17.307Z,32.60
2019-02-27T05:28:21.616Z,27.27
2019-02-27T05:34:25.970Z,33.87
2019-02-27T05:40:30.331Z,34.17
2019-02-27T05:46:35.732Z,35.67
2019-02-27T05:52:40.570Z,31.27
2019-02-27T05:58:44.845Z,31.20
2019-02-27T06:04:49.191Z,39.80
2019-02-27T06:10:56.022Z,35.13
2019-02-27T06:16:59.349Z,34.07
2019-02-27T06:23:04.500Z,33.27
2019-02-27T06:29:09.339Z,34.27
2019-02-27T06:35:13.913Z,39.07
2019-02-27T06:41:18.465Z,41.80
2019-02-27T06:47:22.741Z,43.23
2019-02-27T06:53:27.033Z,45.47
2019-02-27T06:59:31.403Z,37.63
2019-02-27T07:05:35.767Z,38.23
2019-02-27T07:11:39.969Z,33.63
2019-02-27T07:17:44.178Z,36.20
2019-02-27T07:23:48.438Z,32.93
2019-02-27T07:29:52.705Z,65.53
2019-02-27T07:35:56.989Z,32.77
2019-02-27T07:42:01.268Z,28.13
2019-02-27T07:48:05.566Z,25.40
2019-02-27T07:54:09.762Z,22.30
2019-02-27T08:00:16.414Z,21.07
2019-02-27T08:06:20.715Z,22.10
2019-02-27T08:12:24.893Z,21.52
2019-02-27T08:18:30.578Z,17.77
2019-02-27T08:24:35.330Z,20.80
2019-02-27T08:30:39.862Z,22.13
2019-02-27T08:36:44.060Z,19.70
2019-02-27T08:42:48.408Z,21.73
2019-02-27T08:48:52.594Z,21.10
2019-02-27T08:54:56.931Z,20.15
2019-02-27T09:01:01.960Z,18.65
2019-02-27T09:07:06.217Z,18.92
2019-02-27T09:13:10.498Z,19.25
2019-02-27T09:25:23.532Z,17.37
2019-02-27T09:31:24.924Z,19.02
2019-02-27T09:37:29.351Z,16.75
2019-02-27T09:43:33.559Z,17.95
2019-02-27T09:49:38.016Z,18.55
2019-02-27T09:55:43.794Z,21.50
2019-02-27T10:01:47.993Z,17.70
2019-02-27T10:07:52.206Z,21.52
2019-02-27T10:13:56.458Z,21.00
2019-02-27T10:20:02.481Z,21.60
2019-02-27T10:26:06.618Z,22.52
2019-02-27T10:32:11.307Z,20.92
2019-02-27T10:38:15.630Z,21.62
2019-02-27T10:44:19.907Z,25.45
2019-02-27T10:50:24.172Z,19.62
2019-02-27T10:56:28.531Z,20.97
2019-02-27T11:02:33.045Z,23.85
2019-02-27T11:08:37.421Z,18.95
2019-02-27T11:14:41.647Z,26.07
2019-02-27T11:20:45.909Z,21.90
2019-02-27T11:26:50.171Z,26.05
2019-02-27T11:32:57.041Z,21.17
2019-02-27T11:39:00.319Z,21.73
2019-02-27T11:45:04.936Z,27.00
2019-02-27T11:51:09.212Z,29.00
2019-02-27T11:57:13.437Z,26.15
2019-02-27T12:03:17.902Z,30.37
2019-02-27T12:09:22.398Z,26.52
2019-02-27T12:15:27.303Z,30.80
2019-02-27T12:21:31.716Z,29.87
2019-02-27T12:27:48.669Z,31.87
2019-02-27T12:33:41.830Z,29.23
2019-02-27T12:39:47.239Z,23.07
2019-02-27T12:45:52.113Z,31.17
2019-02-27T12:51:56.304Z,25.95
2019-02-27T12:58:00.611Z,28.23
2019-02-27T13:04:04.832Z,30.57
2019-02-27T13:10:13.292Z,22.25
2019-02-27T13:16:17.598Z,30.95
2019-02-27T13:22:21.811Z,26.37
2019-02-27T13:28:26.073Z,29.82
2019-02-27T13:34:30.374Z,18.32
2019-02-27T13:40:35.677Z,27.90
2019-02-27T13:46:40.585Z,19.67
2019-02-27T13:52:49.885Z,23.75
2019-02-27T13:58:50.745Z,26.00
2019-02-27T14:04:57.302Z,22.37
2019-02-27T14:11:01.232Z,26.25
2019-02-27T14:17:07.634Z,22.80
2019-02-27T14:23:11.985Z,21.00
2019-02-27T14:29:17.438Z,25.50
2019-02-27T14:35:21.741Z,22.22
2019-02-27T14:41:25.969Z,28.00
2019-02-27T14:47:30.277Z,31.27
2019-02-27T14:53:34.477Z,24.80
2019-02-27T14:59:38.856Z,25.75
2019-02-27T15:05:45.083Z,26.95
2019-02-27T15:11:49.173Z,32.93
2019-02-27T15:17:54.695Z,27.50
2019-02-27T15:24:01.402Z,26.93
2019-02-27T15:30:05.703Z,34.48
2019-02-27T15:36:09.919Z,30.55
2019-02-27T15:42:16.108Z,22.85
2019-02-27T15:48:20.261Z,26.97
2019-02-27T15:54:24.876Z,25.88
2019-02-27T16:00:29.682Z,39.03
2019-02-27T16:06:33.962Z,36.13
2019-02-27T16:12:38.208Z,24.57
2019-02-27T16:18:42.484Z,31.05
2019-02-27T16:24:46.696Z,33.58
2019-02-27T16:30:50.892Z,32.95
2019-02-27T16:36:55.119Z,34.03
2019-02-27T16:42:59.356Z,35.05
2019-02-27T16:49:03.868Z,35.23
2019-02-27T16:55:09.982Z,35.68
2019-02-27T17:01:14.373Z,34.23
2019-02-27T17:07:18.816Z,34.63
2019-02-27T17:13:23.403Z,36.60
2019-02-27T17:19:28.836Z,37.17
2019-02-27T17:25:33.130Z,36.68
2019-02-27T17:31:37.614Z,46.28
2019-02-27T17:37:41.918Z,36.80
2019-02-27T17:43:46.214Z,42.35
2019-02-27T17:49:50.606Z,42.90
2019-02-27T17:55:54.798Z,42.33
2019-02-27T18:01:59.364Z,47.98
2019-02-27T18:08:03.784Z,42.27
2019-02-27T18:14:09.901Z,42.62
2019-02-27T18:20:14.427Z,45.67
2019-02-27T18:26:18.798Z,44.60
2019-02-27T18:32:23.104Z,45.85
2019-02-27T18:38:28.401Z,43.45
2019-02-27T18:44:32.803Z,45.95
2019-02-27T18:50:37.121Z,51.45
2019-02-27T18:56:41.979Z,48.13
2019-02-27T19:02:46.463Z,45.45
2019-02-27T19:08:51.869Z,52.17
2019-02-27T19:14:56.137Z,46.05
2019-02-27T19:21:00.457Z,49.83
2019-02-27T19:27:04.821Z,49.40
2019-02-27T19:33:09.162Z,52.03
2019-02-27T19:39:13.615Z,53.92
2019-02-27T19:45:18.039Z,50.45
2019-02-27T19:51:22.416Z,49.48
2019-02-27T19:57:26.710Z,48.23
2019-02-27T20:03:34.783Z,54.00
2019-02-27T20:09:37.054Z,46.60
2019-02-27T20:15:42.717Z,46.88
2019-02-27T20:21:47.923Z,47.43
2019-02-27T20:27:52.432Z,52.38
2019-02-27T20:33:56.791Z,47.85
2019-02-27T20:40:01.123Z,45.45
2019-02-27T20:46:05.686Z,45.25
2019-02-27T20:52:14.658Z,46.00
2019-02-27T20:58:17.405Z,47.93
2019-02-27T21:04:22.132Z,51.33
2019-02-27T21:10:26.764Z,46.25
2019-02-27T21:16:31.243Z,46.60
2019-02-27T21:22:35.551Z,48.55
2019-02-27T21:28:39.930Z,49.40
2019-02-27T21:34:44.203Z,51.83
2019-02-27T21:40:48.565Z,76.42
2019-02-27T21:46:52.838Z,74.22
2019-02-27T21:52:57.040Z,57.90
2019-02-27T21:59:04.779Z,55.58
2019-02-27T22:05:07.907Z,50.23
2019-02-27T22:11:12.301Z,55.23
2019-02-27T22:17:16.515Z,50.92
2019-02-27T22:23:20.877Z,59.38
2019-02-27T22:29:25.210Z,51.92
2019-02-27T22:35:31.096Z,51.35
2019-02-27T22:41:35.365Z,54.20
2019-02-27T22:47:39.629Z,60.12
2019-02-27T22:53:43.838Z,63.05
2019-02-27T22:59:48.084Z,64.72
2019-02-27T23:05:52.617Z,55.20
2019-02-27T23:11:56.983Z,56.13
2019-02-27T23:18:05.905Z,57.03
2019-02-27T23:24:10.988Z,52.78
2019-02-27T23:30:16.122Z,55.92
2019-02-27T23:36:22.100Z,63.90
2019-02-27T23:42:27.847Z,56.40
2019-02-27T23:48:35.820Z,63.20
2019-02-27T23:54:38.474Z,59.00
